Terminal Aerodrome Forecast
Issued by NWS

Home | Current Version | Previous Version | Graphics & Text | Print | Product List | Glossary On
Versions: 1 2 3 4 5 6 7 8 9 10 11 12 13 14 15 16 17 18 19 20
000
FTUS43 KMPX 040520
TAFRNH
TAF
KRNH 040520Z 0406/0506 12006KT P6SM SKC
     FM040930 10006KT 4SM BR SCT004
      TEMPO 0410/0412 2SM BR SCT002
     FM041400 13007KT P6SM SCT100=

USA.gov is the U.S. government's official web portal to all federal, state and local government web resources and services.